sensor_id;sensor_type;location;lat;lon;timestamp;P1;durP1;ratioP1;P2;durP2;ratioP2
62437;SDS011;48481;0.000;0.000;2023-05-25T00:02:09;15.05;;;3.95;;
62437;SDS011;48481;0.000;0.000;2023-05-25T00:04:39;13.23;;;4.05;;
62437;SDS011;48481;0.000;0.000;2023-05-25T00:07:05;12.10;;;3.58;;
62437;SDS011;48481;0.000;0.000;2023-05-25T00:09:30;16.90;;;3.92;;
62437;SDS011;48481;0.000;0.000;2023-05-25T00:11:55;9.63;;;3.50;;
62437;SDS011;48481;0.000;0.000;2023-05-25T00:14:23;13.23;;;3.40;;
62437;SDS011;48481;0.000;0.000;2023-05-25T00:16:49;6.90;;;3.40;;
62437;SDS011;48481;0.000;0.000;2023-05-25T00:19:15;11.90;;;3.38;;
62437;SDS011;48481;0.000;0.000;2023-05-25T00:21:42;14.13;;;4.30;;
62437;SDS011;48481;0.000;0.000;2023-05-25T00:24:10;11.05;;;4.03;;
62437;SDS011;48481;0.000;0.000;2023-05-25T00:26:35;11.77;;;3.38;;
62437;SDS011;48481;0.000;0.000;2023-05-25T00:29:01;7.70;;;3.60;;
62437;SDS011;48481;0.000;0.000;2023-05-25T00:31:27;20.73;;;4.25;;
62437;SDS011;48481;0.000;0.000;2023-05-25T00:33:53;11.80;;;4.00;;
62437;SDS011;48481;0.000;0.000;2023-05-25T00:36:19;12.65;;;4.50;;
62437;SDS011;48481;0.000;0.000;2023-05-25T00:38:44;10.25;;;4.30;;
62437;SDS011;48481;0.000;0.000;2023-05-25T00:41:10;10.65;;;4.10;;
62437;SDS011;48481;0.000;0.000;2023-05-25T00:43:36;11.50;;;4.53;;
62437;SDS011;48481;0.000;0.000;2023-05-25T00:46:02;11.15;;;4.93;;
62437;SDS011;48481;0.000;0.000;2023-05-25T00:48:27;16.83;;;5.15;;
62437;SDS011;48481;0.000;0.000;2023-05-25T00:50:53;14.48;;;5.78;;
62437;SDS011;48481;0.000;0.000;2023-05-25T00:53:23;13.95;;;5.07;;
62437;SDS011;48481;0.000;0.000;2023-05-25T00:55:52;9.90;;;4.75;;
62437;SDS011;48481;0.000;0.000;2023-05-25T00:58:23;11.27;;;4.90;;
62437;SDS011;48481;0.000;0.000;2023-05-25T01:00:51;12.85;;;4.93;;
62437;SDS011;48481;0.000;0.000;2023-05-25T01:03:21;15.05;;;4.85;;
62437;SDS011;48481;0.000;0.000;2023-05-25T01:05:51;17.48;;;5.22;;
62437;SDS011;48481;0.000;0.000;2023-05-25T01:08:19;17.58;;;4.82;;
62437;SDS011;48481;0.000;0.000;2023-05-25T01:10:47;13.55;;;5.00;;
62437;SDS011;48481;0.000;0.000;2023-05-25T01:13:13;13.85;;;5.03;;
62437;SDS011;48481;0.000;0.000;2023-05-25T01:15:41;16.75;;;5.95;;
62437;SDS011;48481;0.000;0.000;2023-05-25T01:18:07;13.05;;;5.20;;
62437;SDS011;48481;0.000;0.000;2023-05-25T01:20:33;17.92;;;5.68;;
62437;SDS011;48481;0.000;0.000;2023-05-25T01:23:01;11.57;;;4.68;;
62437;SDS011;48481;0.000;0.000;2023-05-25T01:25:36;19.65;;;5.50;;
62437;SDS011;48481;0.000;0.000;2023-05-25T01:28:08;15.25;;;5.72;;
62437;SDS011;48481;0.000;0.000;2023-05-25T01:30:39;10.88;;;5.40;;
62437;SDS011;48481;0.000;0.000;2023-05-25T01:33:07;12.02;;;5.63;;
62437;SDS011;48481;0.000;0.000;2023-05-25T01:35:34;15.60;;;5.65;;
62437;SDS011;48481;0.000;0.000;2023-05-25T01:38:00;12.18;;;5.63;;
62437;SDS011;48481;0.000;0.000;2023-05-25T01:40:26;11.23;;;5.75;;
62437;SDS011;48481;0.000;0.000;2023-05-25T01:42:52;16.65;;;5.68;;
62437;SDS011;48481;0.000;0.000;2023-05-25T01:45:17;11.43;;;5.35;;
62437;SDS011;48481;0.000;0.000;2023-05-25T01:47:45;16.83;;;5.72;;
62437;SDS011;48481;0.000;0.000;2023-05-25T01:50:47;15.68;;;6.50;;
62437;SDS011;48481;0.000;0.000;2023-05-25T01:53:19;15.60;;;6.57;;
62437;SDS011;48481;0.000;0.000;2023-05-25T01:55:52;20.77;;;5.70;;
62437;SDS011;48481;0.000;0.000;2023-05-25T01:58:26;18.20;;;5.13;;
62437;SDS011;48481;0.000;0.000;2023-05-25T02:00:55;14.63;;;6.28;;
62437;SDS011;48481;0.000;0.000;2023-05-25T02:03:22;13.32;;;6.13;;
62437;SDS011;48481;0.000;0.000;2023-05-25T02:05:47;19.60;;;7.40;;
62437;SDS011;48481;0.000;0.000;2023-05-25T02:08:13;17.63;;;5.90;;
62437;SDS011;48481;0.000;0.000;2023-05-25T02:10:38;14.73;;;5.75;;
62437;SDS011;48481;0.000;0.000;2023-05-25T02:13:03;12.07;;;6.32;;
62437;SDS011;48481;0.000;0.000;2023-05-25T02:15:30;13.48;;;6.40;;
62437;SDS011;48481;0.000;0.000;2023-05-25T02:17:56;19.52;;;6.57;;
62437;SDS011;48481;0.000;0.000;2023-05-25T02:20:23;12.93;;;5.97;;
62437;SDS011;48481;0.000;0.000;2023-05-25T02:22:49;23.13;;;5.78;;
62437;SDS011;48481;0.000;0.000;2023-05-25T02:25:14;7.68;;;5.43;;
62437;SDS011;48481;0.000;0.000;2023-05-25T02:27:40;13.93;;;6.18;;
62437;SDS011;48481;0.000;0.000;2023-05-25T02:30:05;12.45;;;6.30;;
62437;SDS011;48481;0.000;0.000;2023-05-25T02:32:31;16.33;;;5.60;;
62437;SDS011;48481;0.000;0.000;2023-05-25T02:34:57;16.83;;;5.88;;
62437;SDS011;48481;0.000;0.000;2023-05-25T02:37:23;13.07;;;6.03;;
62437;SDS011;48481;0.000;0.000;2023-05-25T02:39:48;24.58;;;6.13;;
62437;SDS011;48481;0.000;0.000;2023-05-25T02:42:14;19.77;;;6.75;;
62437;SDS011;48481;0.000;0.000;2023-05-25T02:44:39;19.05;;;5.72;;
62437;SDS011;48481;0.000;0.000;2023-05-25T02:47:05;16.63;;;7.10;;
62437;SDS011;48481;0.000;0.000;2023-05-25T02:49:31;21.88;;;7.22;;
62437;SDS011;48481;0.000;0.000;2023-05-25T02:51:58;14.63;;;6.10;;
62437;SDS011;48481;0.000;0.000;2023-05-25T02:54:23;13.32;;;5.13;;
62437;SDS011;48481;0.000;0.000;2023-05-25T02:56:49;19.23;;;5.95;;
62437;SDS011;48481;0.000;0.000;2023-05-25T02:59:14;18.10;;;6.40;;
62437;SDS011;48481;0.000;0.000;2023-05-25T03:01:40;15.45;;;6.72;;
62437;SDS011;48481;0.000;0.000;2023-05-25T03:04:06;12.02;;;5.57;;
62437;SDS011;48481;0.000;0.000;2023-05-25T03:06:31;19.95;;;6.18;;
62437;SDS011;48481;0.000;0.000;2023-05-25T03:08:57;21.05;;;6.20;;
62437;SDS011;48481;0.000;0.000;2023-05-25T03:11:22;14.15;;;6.82;;
62437;SDS011;48481;0.000;0.000;2023-05-25T03:13:48;17.13;;;6.07;;
62437;SDS011;48481;0.000;0.000;2023-05-25T03:16:14;19.02;;;6.88;;
62437;SDS011;48481;0.000;0.000;2023-05-25T03:18:40;11.05;;;5.72;;
62437;SDS011;48481;0.000;0.000;2023-05-25T03:21:05;23.13;;;5.90;;
62437;SDS011;48481;0.000;0.000;2023-05-25T03:23:30;8.48;;;5.20;;
62437;SDS011;48481;0.000;0.000;2023-05-25T03:25:56;22.15;;;6.28;;
62437;SDS011;48481;0.000;0.000;2023-05-25T03:28:22;13.27;;;5.07;;
62437;SDS011;48481;0.000;0.000;2023-05-25T03:30:47;17.15;;;5.43;;
62437;SDS011;48481;0.000;0.000;2023-05-25T03:33:12;16.65;;;6.47;;
62437;SDS011;48481;0.000;0.000;2023-05-25T03:35:38;15.25;;;5.55;;
62437;SDS011;48481;0.000;0.000;2023-05-25T03:38:04;16.55;;;5.95;;
62437;SDS011;48481;0.000;0.000;2023-05-25T03:40:29;22.50;;;6.35;;
62437;SDS011;48481;0.000;0.000;2023-05-25T03:42:55;20.15;;;5.65;;
62437;SDS011;48481;0.000;0.000;2023-05-25T03:45:20;17.58;;;6.63;;
62437;SDS011;48481;0.000;0.000;2023-05-25T03:47:45;17.50;;;5.78;;
62437;SDS011;48481;0.000;0.000;2023-05-25T03:50:11;22.90;;;7.05;;
62437;SDS011;48481;0.000;0.000;2023-05-25T03:52:37;20.02;;;5.43;;
62437;SDS011;48481;0.000;0.000;2023-05-25T03:55:02;13.30;;;4.95;;
62437;SDS011;48481;0.000;0.000;2023-05-25T03:57:29;9.65;;;5.40;;
62437;SDS011;48481;0.000;0.000;2023-05-25T03:59:54;15.18;;;5.78;;
62437;SDS011;48481;0.000;0.000;2023-05-25T04:02:20;14.35;;;5.35;;
62437;SDS011;48481;0.000;0.000;2023-05-25T04:04:46;14.43;;;6.10;;
62437;SDS011;48481;0.000;0.000;2023-05-25T04:07:14;15.48;;;5.93;;
62437;SDS011;48481;0.000;0.000;2023-05-25T04:09:40;10.23;;;5.53;;
62437;SDS011;48481;0.000;0.000;2023-05-25T04:12:05;15.15;;;5.53;;
62437;SDS011;48481;0.000;0.000;2023-05-25T04:14:31;13.13;;;5.13;;
62437;SDS011;48481;0.000;0.000;2023-05-25T04:16:56;16.80;;;6.10;;
62437;SDS011;48481;0.000;0.000;2023-05-25T04:19:21;22.42;;;6.07;;
62437;SDS011;48481;0.000;0.000;2023-05-25T04:21:47;15.90;;;5.35;;
62437;SDS011;48481;0.000;0.000;2023-05-25T04:24:12;17.05;;;5.47;;
62437;SDS011;48481;0.000;0.000;2023-05-25T04:26:37;10.20;;;5.53;;
62437;SDS011;48481;0.000;0.000;2023-05-25T04:29:03;17.10;;;5.00;;
62437;SDS011;48481;0.000;0.000;2023-05-25T04:31:28;12.23;;;5.43;;
62437;SDS011;48481;0.000;0.000;2023-05-25T04:33:55;14.73;;;5.30;;
62437;SDS011;48481;0.000;0.000;2023-05-25T04:36:20;16.48;;;5.78;;
62437;SDS011;48481;0.000;0.000;2023-05-25T04:38:46;13.43;;;4.97;;
62437;SDS011;48481;0.000;0.000;2023-05-25T04:41:15;12.27;;;5.35;;
62437;SDS011;48481;0.000;0.000;2023-05-25T04:43:40;13.10;;;5.28;;
62437;SDS011;48481;0.000;0.000;2023-05-25T04:46:09;16.83;;;5.32;;
62437;SDS011;48481;0.000;0.000;2023-05-25T04:48:35;15.70;;;5.47;;
62437;SDS011;48481;0.000;0.000;2023-05-25T04:51:02;14.55;;;4.95;;
62437;SDS011;48481;0.000;0.000;2023-05-25T04:53:28;17.33;;;5.15;;
62437;SDS011;48481;0.000;0.000;2023-05-25T04:55:54;11.38;;;5.43;;
62437;SDS011;48481;0.000;0.000;2023-05-25T04:58:20;14.20;;;4.97;;
62437;SDS011;48481;0.000;0.000;2023-05-25T05:00:46;15.65;;;4.80;;
62437;SDS011;48481;0.000;0.000;2023-05-25T05:03:11;17.17;;;4.68;;
62437;SDS011;48481;0.000;0.000;2023-05-25T05:05:37;10.98;;;4.55;;
62437;SDS011;48481;0.000;0.000;2023-05-25T05:08:03;9.13;;;4.30;;
62437;SDS011;48481;0.000;0.000;2023-05-25T05:10:28;13.13;;;4.35;;
62437;SDS011;48481;0.000;0.000;2023-05-25T05:12:54;13.05;;;4.20;;
62437;SDS011;48481;0.000;0.000;2023-05-25T05:15:19;13.80;;;3.97;;
62437;SDS011;48481;0.000;0.000;2023-05-25T05:17:45;9.18;;;3.83;;
62437;SDS011;48481;0.000;0.000;2023-05-25T05:20:10;13.10;;;3.67;;
62437;SDS011;48481;0.000;0.000;2023-05-25T05:22:36;12.20;;;3.78;;
62437;SDS011;48481;0.000;0.000;2023-05-25T05:25:01;17.80;;;3.88;;
62437;SDS011;48481;0.000;0.000;2023-05-25T05:27:27;11.38;;;3.30;;
62437;SDS011;48481;0.000;0.000;2023-05-25T05:29:52;11.73;;;4.40;;
62437;SDS011;48481;0.000;0.000;2023-05-25T05:32:18;11.68;;;3.60;;
62437;SDS011;48481;0.000;0.000;2023-05-25T05:34:43;7.57;;;2.67;;
62437;SDS011;48481;0.000;0.000;2023-05-25T05:37:08;6.32;;;3.50;;
62437;SDS011;48481;0.000;0.000;2023-05-25T05:39:34;14.50;;;3.75;;
62437;SDS011;48481;0.000;0.000;2023-05-25T05:41:59;10.68;;;3.05;;
62437;SDS011;48481;0.000;0.000;2023-05-25T05:44:25;9.43;;;2.40;;
62437;SDS011;48481;0.000;0.000;2023-05-25T05:46:51;12.60;;;3.45;;
62437;SDS011;48481;0.000;0.000;2023-05-25T05:49:16;6.90;;;2.90;;
62437;SDS011;48481;0.000;0.000;2023-05-25T05:51:41;12.10;;;3.42;;
62437;SDS011;48481;0.000;0.000;2023-05-25T05:54:07;9.60;;;3.97;;
62437;SDS011;48481;0.000;0.000;2023-05-25T05:56:32;19.98;;;3.38;;
62437;SDS011;48481;0.000;0.000;2023-05-25T05:58:57;15.70;;;3.75;;
62437;SDS011;48481;0.000;0.000;2023-05-25T06:01:23;8.27;;;2.97;;
62437;SDS011;48481;0.000;0.000;2023-05-25T06:03:49;17.23;;;3.85;;
62437;SDS011;48481;0.000;0.000;2023-05-25T06:06:16;11.55;;;3.38;;
62437;SDS011;48481;0.000;0.000;2023-05-25T06:08:42;9.95;;;3.75;;
62437;SDS011;48481;0.000;0.000;2023-05-25T06:11:07;11.55;;;3.28;;
62437;SDS011;48481;0.000;0.000;2023-05-25T06:13:33;15.38;;;3.50;;
62437;SDS011;48481;0.000;0.000;2023-05-25T06:15:58;15.27;;;4.68;;
62437;SDS011;48481;0.000;0.000;2023-05-25T06:18:23;14.65;;;3.40;;
62437;SDS011;48481;0.000;0.000;2023-05-25T06:20:49;16.08;;;2.92;;
62437;SDS011;48481;0.000;0.000;2023-05-25T06:23:14;12.93;;;3.40;;
62437;SDS011;48481;0.000;0.000;2023-05-25T06:25:42;8.63;;;2.55;;
62437;SDS011;48481;0.000;0.000;2023-05-25T06:28:08;10.52;;;2.97;;
62437;SDS011;48481;0.000;0.000;2023-05-25T06:30:34;15.48;;;3.00;;
62437;SDS011;48481;0.000;0.000;2023-05-25T06:32:59;11.63;;;2.55;;
62437;SDS011;48481;0.000;0.000;2023-05-25T06:35:24;19.00;;;3.25;;
62437;SDS011;48481;0.000;0.000;2023-05-25T06:37:50;12.23;;;2.50;;
62437;SDS011;48481;0.000;0.000;2023-05-25T06:40:15;15.73;;;2.70;;
62437;SDS011;48481;0.000;0.000;2023-05-25T06:42:41;18.10;;;3.78;;
62437;SDS011;48481;0.000;0.000;2023-05-25T06:45:07;16.35;;;2.88;;
62437;SDS011;48481;0.000;0.000;2023-05-25T06:47:33;21.05;;;2.85;;
62437;SDS011;48481;0.000;0.000;2023-05-25T06:49:59;15.00;;;2.85;;
62437;SDS011;48481;0.000;0.000;2023-05-25T06:52:24;18.33;;;2.80;;
62437;SDS011;48481;0.000;0.000;2023-05-25T06:54:53;22.13;;;3.42;;
62437;SDS011;48481;0.000;0.000;2023-05-25T06:57:19;14.00;;;3.55;;
62437;SDS011;48481;0.000;0.000;2023-05-25T06:59:44;11.35;;;2.58;;
62437;SDS011;48481;0.000;0.000;2023-05-25T07:02:10;13.80;;;2.35;;
62437;SDS011;48481;0.000;0.000;2023-05-25T07:04:35;14.10;;;3.00;;
62437;SDS011;48481;0.000;0.000;2023-05-25T07:07:01;14.68;;;3.00;;
62437;SDS011;48481;0.000;0.000;2023-05-25T07:09:27;19.15;;;3.42;;
62437;SDS011;48481;0.000;0.000;2023-05-25T07:11:52;22.48;;;3.80;;
62437;SDS011;48481;0.000;0.000;2023-05-25T07:14:18;16.17;;;3.65;;
62437;SDS011;48481;0.000;0.000;2023-05-25T07:16:43;13.30;;;3.17;;
62437;SDS011;48481;0.000;0.000;2023-05-25T07:19:12;15.57;;;3.03;;
62437;SDS011;48481;0.000;0.000;2023-05-25T07:21:37;16.52;;;3.85;;
62437;SDS011;48481;0.000;0.000;2023-05-25T07:24:03;13.18;;;3.08;;
62437;SDS011;48481;0.000;0.000;2023-05-25T07:26:29;11.70;;;2.85;;
62437;SDS011;48481;0.000;0.000;2023-05-25T07:28:56;20.33;;;3.90;;
62437;SDS011;48481;0.000;0.000;2023-05-25T07:31:21;16.50;;;3.55;;
62437;SDS011;48481;0.000;0.000;2023-05-25T07:33:47;19.35;;;3.42;;
62437;SDS011;48481;0.000;0.000;2023-05-25T07:36:12;12.45;;;3.67;;
62437;SDS011;48481;0.000;0.000;2023-05-25T07:38:37;15.30;;;3.08;;
62437;SDS011;48481;0.000;0.000;2023-05-25T07:41:03;18.67;;;3.03;;
62437;SDS011;48481;0.000;0.000;2023-05-25T07:43:28;16.25;;;3.28;;
62437;SDS011;48481;0.000;0.000;2023-05-25T07:45:53;13.50;;;3.08;;
62437;SDS011;48481;0.000;0.000;2023-05-25T07:48:19;13.15;;;2.75;;
62437;SDS011;48481;0.000;0.000;2023-05-25T07:50:44;19.35;;;3.20;;
62437;SDS011;48481;0.000;0.000;2023-05-25T07:53:10;11.50;;;3.00;;
62437;SDS011;48481;0.000;0.000;2023-05-25T07:55:35;13.00;;;2.20;;
62437;SDS011;48481;0.000;0.000;2023-05-25T07:58:00;16.52;;;2.83;;
62437;SDS011;48481;0.000;0.000;2023-05-25T08:00:26;17.73;;;3.83;;
62437;SDS011;48481;0.000;0.000;2023-05-25T08:02:51;17.40;;;2.88;;
62437;SDS011;48481;0.000;0.000;2023-05-25T08:05:17;16.33;;;3.17;;
62437;SDS011;48481;0.000;0.000;2023-05-25T08:07:43;18.08;;;2.22;;
62437;SDS011;48481;0.000;0.000;2023-05-25T08:10:09;16.75;;;3.70;;
62437;SDS011;48481;0.000;0.000;2023-05-25T08:12:34;16.48;;;3.42;;
62437;SDS011;48481;0.000;0.000;2023-05-25T08:15:00;13.27;;;2.60;;
62437;SDS011;48481;0.000;0.000;2023-05-25T08:17:25;13.85;;;2.40;;
62437;SDS011;48481;0.000;0.000;2023-05-25T08:19:51;13.20;;;2.70;;
62437;SDS011;48481;0.000;0.000;2023-05-25T08:22:16;14.45;;;2.63;;
62437;SDS011;48481;0.000;0.000;2023-05-25T08:24:41;14.27;;;2.65;;
62437;SDS011;48481;0.000;0.000;2023-05-25T08:27:07;15.40;;;3.30;;
62437;SDS011;48481;0.000;0.000;2023-05-25T08:29:32;16.33;;;2.80;;
62437;SDS011;48481;0.000;0.000;2023-05-25T08:31:57;13.77;;;3.03;;
62437;SDS011;48481;0.000;0.000;2023-05-25T08:34:23;18.63;;;3.05;;
62437;SDS011;48481;0.000;0.000;2023-05-25T08:36:48;11.18;;;2.88;;
62437;SDS011;48481;0.000;0.000;2023-05-25T08:39:14;21.27;;;3.78;;
62437;SDS011;48481;0.000;0.000;2023-05-25T08:41:42;13.38;;;2.78;;
62437;SDS011;48481;0.000;0.000;2023-05-25T08:44:08;9.98;;;3.05;;
62437;SDS011;48481;0.000;0.000;2023-05-25T08:46:34;15.32;;;2.80;;
62437;SDS011;48481;0.000;0.000;2023-05-25T08:49:18;14.20;;;3.25;;
62437;SDS011;48481;0.000;0.000;2023-05-25T08:54:19;9.07;;;2.60;;
62437;SDS011;48481;0.000;0.000;2023-05-25T08:56:49;11.45;;;2.72;;
62437;SDS011;48481;0.000;0.000;2023-05-25T09:01:57;18.25;;;3.40;;
62437;SDS011;48481;0.000;0.000;2023-05-25T09:04:30;11.82;;;3.03;;
62437;SDS011;48481;0.000;0.000;2023-05-25T09:06:58;16.33;;;2.20;;
62437;SDS011;48481;0.000;0.000;2023-05-25T09:09:24;9.63;;;3.45;;
62437;SDS011;48481;0.000;0.000;2023-05-25T09:11:50;10.65;;;2.50;;
62437;SDS011;48481;0.000;0.000;2023-05-25T09:14:16;11.73;;;3.00;;
62437;SDS011;48481;0.000;0.000;2023-05-25T09:16:42;23.00;;;3.15;;
62437;SDS011;48481;0.000;0.000;2023-05-25T09:19:09;12.13;;;2.28;;
62437;SDS011;48481;0.000;0.000;2023-05-25T09:21:34;17.90;;;2.75;;
62437;SDS011;48481;0.000;0.000;2023-05-25T09:24:00;14.35;;;2.85;;
62437;SDS011;48481;0.000;0.000;2023-05-25T09:26:26;14.65;;;3.08;;
62437;SDS011;48481;0.000;0.000;2023-05-25T09:28:52;18.10;;;3.35;;
62437;SDS011;48481;0.000;0.000;2023-05-25T09:31:17;20.50;;;3.63;;
62437;SDS011;48481;0.000;0.000;2023-05-25T09:33:43;18.63;;;3.33;;
62437;SDS011;48481;0.000;0.000;2023-05-25T09:36:11;14.93;;;3.00;;
62437;SDS011;48481;0.000;0.000;2023-05-25T09:38:39;18.27;;;3.30;;
62437;SDS011;48481;0.000;0.000;2023-05-25T09:41:04;19.75;;;3.22;;
62437;SDS011;48481;0.000;0.000;2023-05-25T09:43:30;9.52;;;3.25;;
62437;SDS011;48481;0.000;0.000;2023-05-25T09:45:56;16.95;;;2.47;;
62437;SDS011;48481;0.000;0.000;2023-05-25T09:48:22;14.10;;;3.10;;
62437;SDS011;48481;0.000;0.000;2023-05-25T09:50:48;9.48;;;2.42;;
62437;SDS011;48481;0.000;0.000;2023-05-25T09:53:13;21.08;;;3.50;;
62437;SDS011;48481;0.000;0.000;2023-05-25T09:55:39;16.10;;;4.50;;
62437;SDS011;48481;0.000;0.000;2023-05-25T09:58:04;16.70;;;2.97;;
62437;SDS011;48481;0.000;0.000;2023-05-25T10:00:30;14.07;;;3.15;;
62437;SDS011;48481;0.000;0.000;2023-05-25T10:02:55;14.20;;;3.05;;
62437;SDS011;48481;0.000;0.000;2023-05-25T10:05:21;15.05;;;3.15;;
62437;SDS011;48481;0.000;0.000;2023-05-25T10:07:46;11.82;;;2.72;;
62437;SDS011;48481;0.000;0.000;2023-05-25T10:10:15;12.75;;;2.78;;
62437;SDS011;48481;0.000;0.000;2023-05-25T10:12:44;17.67;;;3.17;;
62437;SDS011;48481;0.000;0.000;2023-05-25T10:15:10;12.95;;;2.78;;
62437;SDS011;48481;0.000;0.000;2023-05-25T10:17:51;16.02;;;2.60;;
62437;SDS011;48481;0.000;0.000;2023-05-25T10:20:17;12.07;;;2.55;;
62437;SDS011;48481;0.000;0.000;2023-05-25T10:22:50;13.85;;;3.15;;
62437;SDS011;48481;0.000;0.000;2023-05-25T10:27:57;16.10;;;3.28;;
62437;SDS011;48481;0.000;0.000;2023-05-25T10:30:26;14.30;;;3.08;;
62437;SDS011;48481;0.000;0.000;2023-05-25T10:32:52;14.57;;;3.20;;
62437;SDS011;48481;0.000;0.000;2023-05-25T10:35:20;15.05;;;2.72;;
62437;SDS011;48481;0.000;0.000;2023-05-25T10:37:46;14.10;;;3.00;;
62437;SDS011;48481;0.000;0.000;2023-05-25T10:40:11;18.98;;;3.70;;
62437;SDS011;48481;0.000;0.000;2023-05-25T10:42:38;9.63;;;2.50;;
62437;SDS011;48481;0.000;0.000;2023-05-25T10:45:05;16.98;;;3.92;;
62437;SDS011;48481;0.000;0.000;2023-05-25T10:47:32;20.50;;;3.72;;
62437;SDS011;48481;0.000;0.000;2023-05-25T10:50:00;17.73;;;4.40;;
62437;SDS011;48481;0.000;0.000;2023-05-25T10:52:27;12.48;;;3.42;;
62437;SDS011;48481;0.000;0.000;2023-05-25T10:54:55;25.00;;;4.57;;
62437;SDS011;48481;0.000;0.000;2023-05-25T10:57:31;23.08;;;3.90;;
62437;SDS011;48481;0.000;0.000;2023-05-25T11:00:03;12.93;;;3.67;;
62437;SDS011;48481;0.000;0.000;2023-05-25T11:02:48;14.10;;;3.47;;
62437;SDS011;48481;0.000;0.000;2023-05-25T11:07:53;18.45;;;3.97;;
62437;SDS011;48481;0.000;0.000;2023-05-25T11:13:23;17.38;;;4.07;;
62437;SDS011;48481;0.000;0.000;2023-05-25T11:18:47;21.98;;;4.13;;
62437;SDS011;48481;0.000;0.000;2023-05-25T11:24:00;27.08;;;4.65;;
62437;SDS011;48481;0.000;0.000;2023-05-25T11:26:28;25.70;;;4.88;;
62437;SDS011;48481;0.000;0.000;2023-05-25T11:28:55;18.77;;;3.78;;
62437;SDS011;48481;0.000;0.000;2023-05-25T11:33:53;23.35;;;4.97;;
62437;SDS011;48481;0.000;0.000;2023-05-25T11:36:21;18.50;;;4.05;;
62437;SDS011;48481;0.000;0.000;2023-05-25T11:38:47;20.70;;;4.40;;
62437;SDS011;48481;0.000;0.000;2023-05-25T11:41:16;17.80;;;3.67;;
62437;SDS011;48481;0.000;0.000;2023-05-25T11:43:50;19.17;;;4.18;;
62437;SDS011;48481;0.000;0.000;2023-05-25T11:46:16;17.02;;;3.45;;
62437;SDS011;48481;0.000;0.000;2023-05-25T11:48:48;26.73;;;4.57;;
62437;SDS011;48481;0.000;0.000;2023-05-25T11:51:19;14.38;;;3.75;;
62437;SDS011;48481;0.000;0.000;2023-05-25T11:53:45;29.02;;;5.78;;
62437;SDS011;48481;0.000;0.000;2023-05-25T11:56:12;15.95;;;3.78;;
62437;SDS011;48481;0.000;0.000;2023-05-25T11:58:38;20.33;;;5.00;;
62437;SDS011;48481;0.000;0.000;2023-05-25T12:01:14;12.65;;;4.70;;
62437;SDS011;48481;0.000;0.000;2023-05-25T12:03:41;28.42;;;4.30;;
62437;SDS011;48481;0.000;0.000;2023-05-25T12:06:07;24.35;;;3.90;;
62437;SDS011;48481;0.000;0.000;2023-05-25T12:08:35;16.17;;;3.58;;
62437;SDS011;48481;0.000;0.000;2023-05-25T12:11:01;16.65;;;3.97;;
62437;SDS011;48481;0.000;0.000;2023-05-25T12:13:27;13.70;;;3.45;;
62437;SDS011;48481;0.000;0.000;2023-05-25T12:15:54;21.73;;;3.50;;
62437;SDS011;48481;0.000;0.000;2023-05-25T12:18:25;15.07;;;3.65;;
62437;SDS011;48481;0.000;0.000;2023-05-25T12:20:52;25.80;;;4.35;;
62437;SDS011;48481;0.000;0.000;2023-05-25T12:23:17;21.17;;;3.95;;
62437;SDS011;48481;0.000;0.000;2023-05-25T12:25:43;12.88;;;4.28;;
62437;SDS011;48481;0.000;0.000;2023-05-25T12:28:11;24.10;;;4.72;;
62437;SDS011;48481;0.000;0.000;2023-05-25T12:30:38;19.48;;;4.43;;
62437;SDS011;48481;0.000;0.000;2023-05-25T12:33:05;20.90;;;4.63;;
62437;SDS011;48481;0.000;0.000;2023-05-25T12:35:43;21.67;;;4.05;;
62437;SDS011;48481;0.000;0.000;2023-05-25T12:38:10;21.02;;;4.50;;
62437;SDS011;48481;0.000;0.000;2023-05-25T12:40:35;24.50;;;5.45;;
62437;SDS011;48481;0.000;0.000;2023-05-25T12:43:01;16.33;;;3.75;;
62437;SDS011;48481;0.000;0.000;2023-05-25T12:45:26;21.50;;;5.07;;
62437;SDS011;48481;0.000;0.000;2023-05-25T12:47:52;18.95;;;4.07;;
62437;SDS011;48481;0.000;0.000;2023-05-25T12:50:17;16.77;;;3.50;;
62437;SDS011;48481;0.000;0.000;2023-05-25T12:52:44;20.00;;;3.47;;
62437;SDS011;48481;0.000;0.000;2023-05-25T12:55:23;23.23;;;3.78;;
62437;SDS011;48481;0.000;0.000;2023-05-25T13:02:57;18.02;;;3.85;;
62437;SDS011;48481;0.000;0.000;2023-05-25T13:05:24;16.60;;;3.50;;
62437;SDS011;48481;0.000;0.000;2023-05-25T13:07:53;22.30;;;3.88;;
62437;SDS011;48481;0.000;0.000;2023-05-25T13:10:19;21.95;;;3.63;;
62437;SDS011;48481;0.000;0.000;2023-05-25T13:12:45;22.00;;;4.72;;
62437;SDS011;48481;0.000;0.000;2023-05-25T13:15:12;23.42;;;4.68;;
62437;SDS011;48481;0.000;0.000;2023-05-25T13:17:43;18.73;;;4.22;;
62437;SDS011;48481;0.000;0.000;2023-05-25T13:20:12;14.32;;;3.95;;
62437;SDS011;48481;0.000;0.000;2023-05-25T13:22:39;23.25;;;4.53;;
62437;SDS011;48481;0.000;0.000;2023-05-25T13:25:06;19.52;;;3.38;;
62437;SDS011;48481;0.000;0.000;2023-05-25T13:27:33;23.58;;;4.60;;
62437;SDS011;48481;0.000;0.000;2023-05-25T13:30:00;17.65;;;3.72;;
62437;SDS011;48481;0.000;0.000;2023-05-25T13:32:25;16.75;;;4.35;;
62437;SDS011;48481;0.000;0.000;2023-05-25T13:34:51;23.38;;;4.47;;
62437;SDS011;48481;0.000;0.000;2023-05-25T13:37:18;18.02;;;4.15;;
62437;SDS011;48481;0.000;0.000;2023-05-25T13:39:43;18.10;;;3.97;;
62437;SDS011;48481;0.000;0.000;2023-05-25T13:42:09;25.60;;;4.68;;
62437;SDS011;48481;0.000;0.000;2023-05-25T13:44:34;17.83;;;4.03;;
62437;SDS011;48481;0.000;0.000;2023-05-25T13:46:59;22.50;;;4.00;;
62437;SDS011;48481;0.000;0.000;2023-05-25T13:49:25;16.00;;;3.60;;
62437;SDS011;48481;0.000;0.000;2023-05-25T13:51:50;19.20;;;3.28;;
62437;SDS011;48481;0.000;0.000;2023-05-25T13:54:15;19.52;;;4.22;;
62437;SDS011;48481;0.000;0.000;2023-05-25T13:56:42;18.52;;;4.18;;
62437;SDS011;48481;0.000;0.000;2023-05-25T13:59:07;19.63;;;4.63;;
62437;SDS011;48481;0.000;0.000;2023-05-25T14:01:33;14.90;;;3.95;;
62437;SDS011;48481;0.000;0.000;2023-05-25T14:03:58;15.90;;;3.50;;
62437;SDS011;48481;0.000;0.000;2023-05-25T14:06:24;24.45;;;5.88;;
62437;SDS011;48481;0.000;0.000;2023-05-25T14:08:49;20.48;;;5.38;;
62437;SDS011;48481;0.000;0.000;2023-05-25T14:11:15;24.33;;;3.83;;
62437;SDS011;48481;0.000;0.000;2023-05-25T14:13:41;13.70;;;3.72;;
62437;SDS011;48481;0.000;0.000;2023-05-25T14:16:06;19.05;;;4.13;;
62437;SDS011;48481;0.000;0.000;2023-05-25T14:18:31;27.55;;;4.25;;
62437;SDS011;48481;0.000;0.000;2023-05-25T14:20:57;18.60;;;4.00;;
62437;SDS011;48481;0.000;0.000;2023-05-25T14:23:22;28.80;;;3.90;;
62437;SDS011;48481;0.000;0.000;2023-05-25T14:25:48;24.33;;;4.70;;
62437;SDS011;48481;0.000;0.000;2023-05-25T14:28:14;27.00;;;3.88;;
62437;SDS011;48481;0.000;0.000;2023-05-25T14:30:40;15.48;;;3.28;;
62437;SDS011;48481;0.000;0.000;2023-05-25T14:33:06;19.67;;;3.70;;
62437;SDS011;48481;0.000;0.000;2023-05-25T14:35:31;14.95;;;4.32;;
62437;SDS011;48481;0.000;0.000;2023-05-25T14:37:56;23.75;;;4.78;;
62437;SDS011;48481;0.000;0.000;2023-05-25T14:40:22;20.52;;;3.53;;
62437;SDS011;48481;0.000;0.000;2023-05-25T14:42:47;25.92;;;5.13;;
62437;SDS011;48481;0.000;0.000;2023-05-25T14:45:12;34.33;;;4.22;;
62437;SDS011;48481;0.000;0.000;2023-05-25T14:47:38;30.00;;;5.82;;
62437;SDS011;48481;0.000;0.000;2023-05-25T14:50:04;14.35;;;4.43;;
62437;SDS011;48481;0.000;0.000;2023-05-25T14:52:31;24.88;;;4.13;;
62437;SDS011;48481;0.000;0.000;2023-05-25T14:54:56;16.88;;;3.88;;
62437;SDS011;48481;0.000;0.000;2023-05-25T14:57:21;26.80;;;4.55;;
62437;SDS011;48481;0.000;0.000;2023-05-25T14:59:47;20.95;;;4.47;;
62437;SDS011;48481;0.000;0.000;2023-05-25T15:02:12;18.60;;;4.18;;
62437;SDS011;48481;0.000;0.000;2023-05-25T15:04:37;22.30;;;4.03;;
62437;SDS011;48481;0.000;0.000;2023-05-25T15:07:03;22.75;;;4.45;;
62437;SDS011;48481;0.000;0.000;2023-05-25T15:09:28;24.08;;;4.68;;
62437;SDS011;48481;0.000;0.000;2023-05-25T15:11:57;20.52;;;8.18;;